Nearby METAR Reports

 

KSJC - San Jose, California, USA
Distance from station: NE 9mi, 14km
Updated: Mon, 01-Jun-2020 1:53am PDT
Overcast
Overcast
 Wind from NNW
Wind: NNW 8 mph , 13 km/h
Temperature: 61°F , 16°C
Dew Point: 48°F , 9°C
Humidity: 63%
Barometer: 29.97 inHg , 1014.9 hPa
Clouds: Overcast
Visibility: 10 miles , 16 km
Cloud details: Overcast 2600 ft
2020/06/01 08:53 KSJC 010853Z AUTO 34007KT 10SM OVC026 16/09 A2997 RMK AO2 SLP148 T01610094 58001 $
KNUQ - Moffett Nas/Mtn, California, USA
Distance from station: N 9mi, 14km
Updated: Mon, 01-Jun-2020 2:35am PDT
Overcast
Overcast
 Wind from N
Wind: N 3 mph , 6 km/h
Temperature: 59°F , 15°C
Dew Point: 50°F , 10°C
Humidity: 72%
Barometer: 29.97 inHg , 1014.9 hPa
Clouds: Overcast
Visibility: 10 miles , 16 km
Cloud details: Partly cloudy 9500 ft
Overcast 11000 ft
2020/06/01 09:35 KNUQ 010935Z AUTO 01003KT 10SM SCT095 OVC110 15/10 A2997 RMK AO2
 
KPAO - Palo Alto, California, USA
Distance from station: NNW 14mi, 23km
Updated: Sun, 31-May-2020 4:47pm PDT
NOT Current
Mostly cloudy
Mostly cloudy
 Wind from NNW
Wind: NNW 16 mph , 26 km/h
Temperature: 66°F , 19°C
Dew Point: 55°F , 13°C
Humidity: 68%
Barometer: 29.96 inHg , 1014.6 hPa
Clouds: Mostly cloudy
Visibility: 10 miles , 16 km
Cloud details: Mostly cloudy 3500 ft
2020/05/31 23:47 KPAO 312347Z 34014KT 10SM BKN035 19/13 A2996 RMK LAST. GPS/VOR N/A @ NIGHT
KRHV - San Jose/Reid, California, USA
Distance from station: ENE 12mi, 19km
Updated: Sun, 31-May-2020 9:47pm PDT
NOT Current
Mostly cloudy
Mostly cloudy
 Wind from WNW
Wind: WNW 8 mph , 13 km/h
Temperature: 63°F , 17°C
Dew Point: 54°F , 12°C
Humidity: 73%
Barometer: 29.96 inHg , 1014.6 hPa
Clouds: Mostly cloudy
Visibility: 10 miles , 16 km
Cloud details: Mostly cloudy 10000 ft
2020/06/01 04:47 KRHV 010447Z 30007KT 10SM BKN100 17/12 A2996 RMK LAST
 
KOAK - Oakland, California, USA
Distance from station: NNW 31mi, 50km
Updated: Mon, 01-Jun-2020 2:21am PDT
Overcast
Overcast
 Wind from W
Wind: W 9 mph , 15 km/h
Temperature: 59°F , 15°C
Dew Point: 54°F , 12°C
Humidity: 82%
Barometer: 29.98 inHg , 1015.2 hPa
Clouds: Overcast
Visibility: 10 miles , 16 km
Cloud details: Partly cloudy 900 ft
Overcast 12000 ft
2020/06/01 09:21 KOAK 010921Z 28008KT 10SM SCT009 OVC120 15/12 A2998 RMK AO2 T01500117
KSQL - San Carlos Airpo, California, USA
Distance from station: NW 21mi, 34km
Updated: Mon, 01-Jun-2020 2:35am PDT
Overcast
Overcast
 Wind from calm
Wind: Calm
Temperature: 57°F , 14°C
Dew Point: 50°F , 10°C
Humidity: 77%
Barometer: 29.97 inHg , 1014.9 hPa
Clouds: Overcast
Visibility: 10 miles , 16 km
Cloud details: Overcast 12000 ft
2020/06/01 09:35 KSQL 010935Z AUTO 00000KT 10SM OVC120 14/10 A2997 RMK AO2
 
KSFO - San Francisco, California, USA
Distance from station: NW 30mi, 49km
Updated: Mon, 01-Jun-2020 2:46am PDT
Mostly cloudy
Mostly cloudy
 Wind from W
Wind: W 14 mph , 22 km/h
Temperature: 55°F , 13°C
Dew Point: 52°F , 11°C
Humidity: 88%
Barometer: 29.96 inHg , 1014.6 hPa
Clouds: Mostly cloudy
Visibility: 10 miles , 16 km
Cloud details: Mostly cloudy 900 ft
Mostly cloudy 12000 ft
2020/06/01 09:46 KSFO 010946Z 26012KT 10SM BKN009 BKN120 13/11 A2996 RMK AO2 T01330106
KE16 - San Martin, California, USA
Distance from station: ESE 27mi, 43km
Updated: Mon, 01-Jun-2020 2:25am PDT
Mostly cloudy
Mostly cloudy
 Wind from S
Wind: S 3 mph , 6 km/h
Temperature: 57°F , 14°C
Dew Point: 54°F , 12°C
Humidity: 88%
Barometer: 29.98 inHg , 1015.2 hPa
Clouds: Mostly cloudy
Visibility: 10 miles , 16 km
Cloud details: Mostly cloudy 2300 ft
Mostly cloudy 12000 ft
2020/06/01 09:25 KE16 010925Z AUTO 17003KT 10SM BKN023 BKN120 14/12 A2998 RMK AO2 PWINO PNO
 
KWVI - Watsonville, California, USA
Distance from station: SSE 27mi, 44km
Updated: Mon, 01-Jun-2020 1:53am PDT
Overcast
Overcast
 Wind from E
Wind: E 5 mph , 7 km/h
Temperature: 57°F , 14°C
Dew Point: 54°F , 12°C
Humidity: 88%
Barometer: 29.97 inHg , 1014.9 hPa
Clouds: Overcast
Visibility: 10 miles , 16 km
Cloud details: Overcast 800 ft
2020/06/01 08:53 KWVI 010853Z AUTO 10004KT 10SM OVC008 14/12 A2997 RMK AO2 SLP149 T01440122 58006
KHAF - Half Moon Bay, California, USA
Distance from station: WNW 31mi, 50km
Updated: Mon, 01-Jun-2020 2:35am PDT
Overcast
Overcast
 Wind from calm
Wind: Calm
Temperature: 55°F , 13°C
Dew Point: 52°F , 11°C
Humidity: 88%
Barometer: 29.98 inHg , 1015.2 hPa
Clouds: Overcast
Visibility: 10 miles , 16 km
Cloud details: Overcast 800 ft
2020/06/01 09:35 KHAF 010935Z AUTO 00000KT 10SM OVC008 13/11 A2998 RMK AO2
 
KHWD - Hayward, California, USA
Distance from station: N 28mi, 44km
Updated: Mon, 01-Jun-2020 1:54am PDT
Overcast
Overcast
 Wind from W
Wind: W 5 mph , 7 km/h
Temperature: 59°F , 15°C
Dew Point: 54°F , 12°C
Humidity: 82%
Barometer: 29.97 inHg , 1014.9 hPa
Clouds: Overcast
Visibility: 10 miles , 16 km
Cloud details: Mostly cloudy 1300 ft
Overcast 12000 ft
2020/06/01 08:54 KHWD 010854Z 27004KT 10SM BKN013 OVC120 15/12 A2997 RMK AO2 SLP156 T01500117 58002
KLVK - Livermore, California, USA
Distance from station: NNE 31mi, 51km
Updated: Mon, 01-Jun-2020 1:53am PDT
Overcast
Overcast
 Wind from W
Wind: W 8 mph , 13 km/h
Temperature: 57°F , 14°C
Dew Point: 52°F , 11°C
Humidity: 82%
Barometer: 29.96 inHg , 1014.6 hPa
Clouds: Overcast
Visibility: 10 miles , 16 km
Cloud details: Overcast 11000 ft
2020/06/01 08:53 KLVK 010853Z AUTO 28007KT 10SM OVC110 14/11 A2996 RMK AO2 SLP143 T01390106 50001